LEIB/IBZ METAR and TAF weather

Enter ICAO airport designator
Station Type Date Time Source
LEIB METAR 2020/07/06 03:00 UTC NOAA

LEIB 060300Z 35003KT CAVOK 19/16 Q1016 NOSIG


Station Type Date Time Source
LEIB Decoded METAR 2020/07/06 03:00 UTC NOAA

Ibiza / Es Codola, Spain (LEIB) 38-52N 001-23E 12M
Jul 05, 2020 - 11:00 PM EDT / 2020.07.06 0300 UTC
Wind: from the N (350 degrees) at 3 MPH (3 KT):0
Visibility: greater than 7 mile(s):0
Temperature: 66 F (19 C)
Dew Point: 60 F (16 C)
Relative Humidity: 82%
Pressure (altimeter): 30.00 in. Hg (1016 hPa)
ob: LEIB 060300Z 35003KT CAVOK 19/16 Q1016 NOSIG
cycle: 3

Station Type Date Time Source
LEIB TAF 2020/07/06 03:27 UTC NOAA

TAF LEIB 060200Z 0603/0703 VRB04KT 9999 FEW020 TX30/0612Z TN20/0605Z
BECMG 0608/0610 22010KT

Example: see airport list